sensor_id;sensor_type;location;lat;lon;timestamp;pressure;altitude;pressure_sealevel;temperature
67758;BMP180;54562;47.620;18.786;2022-10-12T00:02:52;99209.80;;;11.60
67758;BMP180;54562;47.620;18.786;2022-10-12T00:06:09;99209.60;;;11.60
67758;BMP180;54562;47.620;18.786;2022-10-12T00:09:17;99210.80;;;11.60
67758;BMP180;54562;47.620;18.786;2022-10-12T00:12:26;99210.20;;;11.60
67758;BMP180;54562;47.620;18.786;2022-10-12T00:15:37;99209.80;;;11.60
67758;BMP180;54562;47.620;18.786;2022-10-12T00:18:48;99212.80;;;11.64
67758;BMP180;54562;47.620;18.786;2022-10-12T00:21:56;99211.60;;;11.70
67758;BMP180;54562;47.620;18.786;2022-10-12T00:25:05;99211.40;;;11.72
67758;BMP180;54562;47.620;18.786;2022-10-12T00:28:13;99211.80;;;11.80
67758;BMP180;54562;47.620;18.786;2022-10-12T00:31:22;99212.20;;;11.84
67758;BMP180;54562;47.620;18.786;2022-10-12T00:34:29;99209.60;;;11.90
67758;BMP180;54562;47.620;18.786;2022-10-12T00:37:37;99220.00;;;11.90
67758;BMP180;54562;47.620;18.786;2022-10-12T00:40:45;99215.80;;;12.00
67758;BMP180;54562;47.620;18.786;2022-10-12T00:43:55;99215.60;;;12.00
67758;BMP180;54562;47.620;18.786;2022-10-12T00:47:07;99212.80;;;12.00
67758;BMP180;54562;47.620;18.786;2022-10-12T00:50:20;99208.00;;;12.04
67758;BMP180;54562;47.620;18.786;2022-10-12T00:53:36;99212.00;;;12.10
67758;BMP180;54562;47.620;18.786;2022-10-12T00:56:47;99214.80;;;12.10
67758;BMP180;54562;47.620;18.786;2022-10-12T01:00:02;99211.20;;;12.20
67758;BMP180;54562;47.620;18.786;2022-10-12T01:03:14;99212.60;;;12.20
67758;BMP180;54562;47.620;18.786;2022-10-12T01:06:24;99213.20;;;12.20
67758;BMP180;54562;47.620;18.786;2022-10-12T01:09:33;99213.60;;;12.20
67758;BMP180;54562;47.620;18.786;2022-10-12T01:12:43;99212.60;;;12.20
67758;BMP180;54562;47.620;18.786;2022-10-12T01:16:03;99217.40;;;12.20
67758;BMP180;54562;47.620;18.786;2022-10-12T01:19:49;99215.80;;;12.20
67758;BMP180;54562;47.620;18.786;2022-10-12T01:23:37;99220.40;;;12.20
67758;BMP180;54562;47.620;18.786;2022-10-12T01:27:06;99222.00;;;12.20
67758;BMP180;54562;47.620;18.786;2022-10-12T01:30:24;99220.60;;;12.20
67758;BMP180;54562;47.620;18.786;2022-10-12T01:33:37;99227.60;;;12.20
67758;BMP180;54562;47.620;18.786;2022-10-12T01:36:56;99230.80;;;12.22
67758;BMP180;54562;47.620;18.786;2022-10-12T01:40:14;99230.80;;;12.20
67758;BMP180;54562;47.620;18.786;2022-10-12T01:43:29;99225.60;;;12.26
67758;BMP180;54562;47.620;18.786;2022-10-12T01:46:45;99230.20;;;12.20
67758;BMP180;54562;47.620;18.786;2022-10-12T01:49:53;99231.20;;;12.20
67758;BMP180;54562;47.620;18.786;2022-10-12T01:53:15;99233.00;;;12.20
67758;BMP180;54562;47.620;18.786;2022-10-12T01:56:34;99229.60;;;12.20
67758;BMP180;54562;47.620;18.786;2022-10-12T01:59:48;99234.40;;;12.20
67758;BMP180;54562;47.620;18.786;2022-10-12T02:03:13;99234.00;;;12.20
67758;BMP180;54562;47.620;18.786;2022-10-12T02:06:27;99234.80;;;12.20
67758;BMP180;54562;47.620;18.786;2022-10-12T02:09:39;99234.60;;;12.20
67758;BMP180;54562;47.620;18.786;2022-10-12T02:12:49;99236.40;;;12.18
67758;BMP180;54562;47.620;18.786;2022-10-12T02:16:03;99239.80;;;12.10
67758;BMP180;54562;47.620;18.786;2022-10-12T02:19:18;99241.40;;;12.10
67758;BMP180;54562;47.620;18.786;2022-10-12T02:22:32;99232.40;;;12.10
67758;BMP180;54562;47.620;18.786;2022-10-12T02:25:42;99232.40;;;12.10
67758;BMP180;54562;47.620;18.786;2022-10-12T02:28:52;99230.60;;;12.10
67758;BMP180;54562;47.620;18.786;2022-10-12T02:32:04;99233.00;;;12.10
67758;BMP180;54562;47.620;18.786;2022-10-12T02:35:19;99232.20;;;12.10
67758;BMP180;54562;47.620;18.786;2022-10-12T02:38:37;99234.60;;;12.00
67758;BMP180;54562;47.620;18.786;2022-10-12T02:41:51;99239.00;;;12.00
67758;BMP180;54562;47.620;18.786;2022-10-12T02:45:05;99238.00;;;12.00
67758;BMP180;54562;47.620;18.786;2022-10-12T02:48:20;99239.80;;;12.00
67758;BMP180;54562;47.620;18.786;2022-10-12T02:51:30;99243.40;;;12.00
67758;BMP180;54562;47.620;18.786;2022-10-12T02:54:41;99251.20;;;11.90
67758;BMP180;54562;47.620;18.786;2022-10-12T02:57:49;99248.00;;;11.90
67758;BMP180;54562;47.620;18.786;2022-10-12T03:00:58;99243.80;;;11.90
67758;BMP180;54562;47.620;18.786;2022-10-12T03:04:06;99241.80;;;11.90
67758;BMP180;54562;47.620;18.786;2022-10-12T03:07:14;99238.40;;;11.80
67758;BMP180;54562;47.620;18.786;2022-10-12T03:10:23;99236.60;;;11.80
67758;BMP180;54562;47.620;18.786;2022-10-12T03:13:31;99229.60;;;11.76
67758;BMP180;54562;47.620;18.786;2022-10-12T03:16:39;99234.00;;;11.78
67758;BMP180;54562;47.620;18.786;2022-10-12T03:19:48;99236.20;;;11.72
67758;BMP180;54562;47.620;18.786;2022-10-12T03:22:56;99235.80;;;11.70
67758;BMP180;54562;47.620;18.786;2022-10-12T03:26:04;99239.80;;;11.70
67758;BMP180;54562;47.620;18.786;2022-10-12T03:29:12;99235.40;;;11.60
67758;BMP180;54562;47.620;18.786;2022-10-12T03:32:21;99239.20;;;11.60
67758;BMP180;54562;47.620;18.786;2022-10-12T03:35:29;99236.60;;;11.60
67758;BMP180;54562;47.620;18.786;2022-10-12T03:38:37;99236.40;;;11.60
67758;BMP180;54562;47.620;18.786;2022-10-12T03:41:45;99236.60;;;11.60
67758;BMP180;54562;47.620;18.786;2022-10-12T03:44:53;99232.00;;;11.60
67758;BMP180;54562;47.620;18.786;2022-10-12T03:48:02;99236.20;;;11.60
67758;BMP180;54562;47.620;18.786;2022-10-12T03:51:10;99239.40;;;11.60
67758;BMP180;54562;47.620;18.786;2022-10-12T03:54:18;99240.20;;;11.60
67758;BMP180;54562;47.620;18.786;2022-10-12T03:57:26;99242.20;;;11.60
67758;BMP180;54562;47.620;18.786;2022-10-12T04:00:35;99241.00;;;11.60
67758;BMP180;54562;47.620;18.786;2022-10-12T04:03:43;99239.20;;;11.60
67758;BMP180;54562;47.620;18.786;2022-10-12T04:06:51;99232.80;;;11.50
67758;BMP180;54562;47.620;18.786;2022-10-12T04:09:59;99234.60;;;11.44
67758;BMP180;54562;47.620;18.786;2022-10-12T04:13:07;99230.80;;;11.40
67758;BMP180;54562;47.620;18.786;2022-10-12T04:16:15;99237.40;;;11.50
67758;BMP180;54562;47.620;18.786;2022-10-12T04:19:23;99238.00;;;11.50
67758;BMP180;54562;47.620;18.786;2022-10-12T04:22:32;99233.40;;;11.50
67758;BMP180;54562;47.620;18.786;2022-10-12T04:25:41;99236.00;;;11.50
67758;BMP180;54562;47.620;18.786;2022-10-12T04:28:48;99229.40;;;11.50
67758;BMP180;54562;47.620;18.786;2022-10-12T04:31:56;99237.80;;;11.50
67758;BMP180;54562;47.620;18.786;2022-10-12T04:35:04;99237.40;;;11.50
67758;BMP180;54562;47.620;18.786;2022-10-12T04:38:12;99240.20;;;11.40
67758;BMP180;54562;47.620;18.786;2022-10-12T04:41:20;99232.80;;;11.40
67758;BMP180;54562;47.620;18.786;2022-10-12T04:44:28;99238.20;;;11.40
67758;BMP180;54562;47.620;18.786;2022-10-12T04:47:36;99240.20;;;11.40
67758;BMP180;54562;47.620;18.786;2022-10-12T04:50:45;99240.60;;;11.30
67758;BMP180;54562;47.620;18.786;2022-10-12T04:53:53;99246.80;;;11.30
67758;BMP180;54562;47.620;18.786;2022-10-12T04:57:01;99246.80;;;11.30
67758;BMP180;54562;47.620;18.786;2022-10-12T05:00:12;99249.00;;;11.30
67758;BMP180;54562;47.620;18.786;2022-10-12T05:03:21;99255.80;;;11.30
67758;BMP180;54562;47.620;18.786;2022-10-12T05:06:29;99258.60;;;11.22
67758;BMP180;54562;47.620;18.786;2022-10-12T05:09:37;99263.60;;;11.26
67758;BMP180;54562;47.620;18.786;2022-10-12T05:12:45;99265.40;;;11.30
67758;BMP180;54562;47.620;18.786;2022-10-12T05:15:54;99267.40;;;11.30
67758;BMP180;54562;47.620;18.786;2022-10-12T05:19:02;99269.40;;;11.30
67758;BMP180;54562;47.620;18.786;2022-10-12T05:22:11;99273.20;;;11.28
67758;BMP180;54562;47.620;18.786;2022-10-12T05:25:19;99278.00;;;11.20
67758;BMP180;54562;47.620;18.786;2022-10-12T05:28:27;99276.40;;;11.20
67758;BMP180;54562;47.620;18.786;2022-10-12T05:31:35;99271.00;;;11.20
67758;BMP180;54562;47.620;18.786;2022-10-12T05:34:43;99271.20;;;11.20
67758;BMP180;54562;47.620;18.786;2022-10-12T05:37:51;99269.80;;;11.20
67758;BMP180;54562;47.620;18.786;2022-10-12T05:40:59;99268.40;;;11.28
67758;BMP180;54562;47.620;18.786;2022-10-12T05:44:08;99274.40;;;11.30
67758;BMP180;54562;47.620;18.786;2022-10-12T05:47:16;99273.40;;;11.30
67758;BMP180;54562;47.620;18.786;2022-10-12T05:50:24;99276.80;;;11.40
67758;BMP180;54562;47.620;18.786;2022-10-12T05:53:36;99286.20;;;11.42
67758;BMP180;54562;47.620;18.786;2022-10-12T05:56:44;99282.00;;;11.50
67758;BMP180;54562;47.620;18.786;2022-10-12T05:59:53;99279.20;;;11.60
67758;BMP180;54562;47.620;18.786;2022-10-12T06:03:01;99285.00;;;11.60
67758;BMP180;54562;47.620;18.786;2022-10-12T06:06:10;99288.40;;;11.70
67758;BMP180;54562;47.620;18.786;2022-10-12T06:09:18;99287.80;;;11.78
67758;BMP180;54562;47.620;18.786;2022-10-12T06:12:27;99289.80;;;11.80
67758;BMP180;54562;47.620;18.786;2022-10-12T06:15:35;99285.60;;;11.90
67758;BMP180;54562;47.620;18.786;2022-10-12T06:18:43;99296.20;;;11.92
67758;BMP180;54562;47.620;18.786;2022-10-12T06:21:51;99292.80;;;12.00
67758;BMP180;54562;47.620;18.786;2022-10-12T06:24:59;99292.80;;;12.00
67758;BMP180;54562;47.620;18.786;2022-10-12T06:28:07;99294.20;;;12.00
67758;BMP180;54562;47.620;18.786;2022-10-12T06:31:16;99302.40;;;12.10
67758;BMP180;54562;47.620;18.786;2022-10-12T06:34:23;99306.80;;;12.18
67758;BMP180;54562;47.620;18.786;2022-10-12T06:37:32;99302.00;;;12.20
67758;BMP180;54562;47.620;18.786;2022-10-12T06:40:56;99312.20;;;12.30
67758;BMP180;54562;47.620;18.786;2022-10-12T06:44:04;99316.00;;;12.30
67758;BMP180;54562;47.620;18.786;2022-10-12T06:47:13;99318.20;;;12.40
67758;BMP180;54562;47.620;18.786;2022-10-12T06:50:22;99321.60;;;12.40
67758;BMP180;54562;47.620;18.786;2022-10-12T06:53:30;99320.40;;;12.50
67758;BMP180;54562;47.620;18.786;2022-10-12T06:56:41;99321.00;;;12.50
67758;BMP180;54562;47.620;18.786;2022-10-12T06:59:49;99321.40;;;12.52
67758;BMP180;54562;47.620;18.786;2022-10-12T07:02:57;99320.00;;;12.60
67758;BMP180;54562;47.620;18.786;2022-10-12T07:06:12;99326.60;;;12.60
67758;BMP180;54562;47.620;18.786;2022-10-12T07:09:21;99325.00;;;12.70
67758;BMP180;54562;47.620;18.786;2022-10-12T07:12:29;99327.00;;;12.70
67758;BMP180;54562;47.620;18.786;2022-10-12T07:15:37;99332.40;;;12.80
67758;BMP180;54562;47.620;18.786;2022-10-12T07:18:45;99329.40;;;12.84
67758;BMP180;54562;47.620;18.786;2022-10-12T07:21:53;99327.20;;;12.90
67758;BMP180;54562;47.620;18.786;2022-10-12T07:25:01;99323.80;;;13.00
67758;BMP180;54562;47.620;18.786;2022-10-12T07:28:10;99319.40;;;13.10
67758;BMP180;54562;47.620;18.786;2022-10-12T07:31:18;99325.40;;;13.10
67758;BMP180;54562;47.620;18.786;2022-10-12T07:34:27;99322.00;;;13.20
67758;BMP180;54562;47.620;18.786;2022-10-12T07:37:35;99316.40;;;13.30
67758;BMP180;54562;47.620;18.786;2022-10-12T07:40:44;99324.60;;;13.40
67758;BMP180;54562;47.620;18.786;2022-10-12T07:43:57;99323.60;;;13.40
67758;BMP180;54562;47.620;18.786;2022-10-12T07:47:05;99321.00;;;13.50
67758;BMP180;54562;47.620;18.786;2022-10-12T07:50:13;99332.20;;;13.60
67758;BMP180;54562;47.620;18.786;2022-10-12T07:53:22;99330.00;;;13.60
67758;BMP180;54562;47.620;18.786;2022-10-12T07:56:30;99330.40;;;13.70
67758;BMP180;54562;47.620;18.786;2022-10-12T07:59:38;99338.20;;;13.72
67758;BMP180;54562;47.620;18.786;2022-10-12T08:02:46;99335.40;;;13.80
67758;BMP180;54562;47.620;18.786;2022-10-12T08:05:54;99336.00;;;13.84
67758;BMP180;54562;47.620;18.786;2022-10-12T08:09:03;99337.40;;;13.90
67758;BMP180;54562;47.620;18.786;2022-10-12T08:12:13;99332.40;;;13.92
67758;BMP180;54562;47.620;18.786;2022-10-12T08:15:21;99327.20;;;14.00
67758;BMP180;54562;47.620;18.786;2022-10-12T08:18:30;99335.60;;;14.00
67758;BMP180;54562;47.620;18.786;2022-10-12T08:21:37;99335.40;;;14.02
67758;BMP180;54562;47.620;18.786;2022-10-12T08:24:46;99333.20;;;14.10
67758;BMP180;54562;47.620;18.786;2022-10-12T08:27:55;99332.80;;;14.16
67758;BMP180;54562;47.620;18.786;2022-10-12T08:31:11;99330.40;;;14.20
67758;BMP180;54562;47.620;18.786;2022-10-12T08:34:19;99331.60;;;14.36
67758;BMP180;54562;47.620;18.786;2022-10-12T08:37:29;99329.60;;;14.50
67758;BMP180;54562;47.620;18.786;2022-10-12T08:40:44;99334.40;;;14.56
67758;BMP180;54562;47.620;18.786;2022-10-12T08:44:18;99327.40;;;14.60
67758;BMP180;54562;47.620;18.786;2022-10-12T08:47:42;99322.60;;;14.70
67758;BMP180;54562;47.620;18.786;2022-10-12T08:50:56;99317.40;;;14.80
67758;BMP180;54562;47.620;18.786;2022-10-12T08:54:10;99315.20;;;14.80
67758;BMP180;54562;47.620;18.786;2022-10-12T08:57:20;99314.60;;;14.82
67758;BMP180;54562;47.620;18.786;2022-10-12T09:00:30;99321.00;;;14.94
67758;BMP180;54562;47.620;18.786;2022-10-12T09:03:55;99325.60;;;15.00
67758;BMP180;54562;47.620;18.786;2022-10-12T09:07:16;99326.00;;;15.10
67758;BMP180;54562;47.620;18.786;2022-10-12T09:10:43;99325.00;;;15.18
67758;BMP180;54562;47.620;18.786;2022-10-12T09:14:05;99323.00;;;15.20
67758;BMP180;54562;47.620;18.786;2022-10-12T09:17:26;99324.00;;;15.20
67758;BMP180;54562;47.620;18.786;2022-10-12T09:20:43;99327.40;;;15.20
67758;BMP180;54562;47.620;18.786;2022-10-12T09:23:56;99331.40;;;15.28
67758;BMP180;54562;47.620;18.786;2022-10-12T09:27:16;99335.60;;;15.30
67758;BMP180;54562;47.620;18.786;2022-10-12T09:30:25;99334.00;;;15.30
67758;BMP180;54562;47.620;18.786;2022-10-12T09:33:39;99333.80;;;15.40
67758;BMP180;54562;47.620;18.786;2022-10-12T09:36:48;99334.40;;;15.40
67758;BMP180;54562;47.620;18.786;2022-10-12T09:39:57;99331.60;;;15.50
67758;BMP180;54562;47.620;18.786;2022-10-12T09:43:07;99336.80;;;15.60
67758;BMP180;54562;47.620;18.786;2022-10-12T09:46:21;99337.40;;;15.66
67758;BMP180;54562;47.620;18.786;2022-10-12T09:49:45;99341.20;;;15.70
67758;BMP180;54562;47.620;18.786;2022-10-12T09:52:53;99339.40;;;15.70
67758;BMP180;54562;47.620;18.786;2022-10-12T09:56:06;99340.00;;;15.80
67758;BMP180;54562;47.620;18.786;2022-10-12T09:59:27;99337.40;;;15.84
67758;BMP180;54562;47.620;18.786;2022-10-12T10:02:48;99340.40;;;15.90
67758;BMP180;54562;47.620;18.786;2022-10-12T10:06:06;99339.00;;;16.00
67758;BMP180;54562;47.620;18.786;2022-10-12T10:09:33;99343.20;;;16.00
67758;BMP180;54562;47.620;18.786;2022-10-12T10:12:53;99342.00;;;16.00
67758;BMP180;54562;47.620;18.786;2022-10-12T10:16:07;99339.80;;;16.00
67758;BMP180;54562;47.620;18.786;2022-10-12T10:19:27;99344.80;;;16.00
67758;BMP180;54562;47.620;18.786;2022-10-12T10:22:36;99346.20;;;16.10
67758;BMP180;54562;47.620;18.786;2022-10-12T10:25:55;99347.00;;;16.20
67758;BMP180;54562;47.620;18.786;2022-10-12T10:29:35;99343.40;;;16.30
67758;BMP180;54562;47.620;18.786;2022-10-12T10:32:45;99341.40;;;16.30
67758;BMP180;54562;47.620;18.786;2022-10-12T10:36:17;99338.80;;;16.40
67758;BMP180;54562;47.620;18.786;2022-10-12T10:39:29;99338.60;;;16.50
67758;BMP180;54562;47.620;18.786;2022-10-12T10:42:39;99338.20;;;16.50
67758;BMP180;54562;47.620;18.786;2022-10-12T10:45:55;99336.80;;;16.60
67758;BMP180;54562;47.620;18.786;2022-10-12T10:49:06;99335.00;;;16.70
67758;BMP180;54562;47.620;18.786;2022-10-12T10:52:25;99338.40;;;16.80
67758;BMP180;54562;47.620;18.786;2022-10-12T10:55:46;99331.60;;;16.90
67758;BMP180;54562;47.620;18.786;2022-10-12T10:58:58;99336.80;;;17.00
67758;BMP180;54562;47.620;18.786;2022-10-12T11:02:22;99333.60;;;17.10
67758;BMP180;54562;47.620;18.786;2022-10-12T11:05:36;99327.60;;;17.20
67758;BMP180;54562;47.620;18.786;2022-10-12T11:08:46;99328.20;;;17.32
67758;BMP180;54562;47.620;18.786;2022-10-12T11:12:01;99324.00;;;17.40
67758;BMP180;54562;47.620;18.786;2022-10-12T11:15:19;99320.60;;;17.46
67758;BMP180;54562;47.620;18.786;2022-10-12T11:18:35;99319.20;;;17.52
67758;BMP180;54562;47.620;18.786;2022-10-12T11:21:53;99323.60;;;17.60
67758;BMP180;54562;47.620;18.786;2022-10-12T11:25:18;99319.40;;;17.50
67758;BMP180;54562;47.620;18.786;2022-10-12T11:28:31;99323.60;;;17.58
67758;BMP180;54562;47.620;18.786;2022-10-12T11:31:46;99327.20;;;17.60
67758;BMP180;54562;47.620;18.786;2022-10-12T11:35:00;99318.80;;;17.64
67758;BMP180;54562;47.620;18.786;2022-10-12T11:38:15;99314.00;;;17.70
67758;BMP180;54562;47.620;18.786;2022-10-12T11:41:33;99312.60;;;17.72
67758;BMP180;54562;47.620;18.786;2022-10-12T11:44:55;99319.00;;;17.84
67758;BMP180;54562;47.620;18.786;2022-10-12T11:48:08;99311.80;;;17.88
67758;BMP180;54562;47.620;18.786;2022-10-12T11:51:16;99307.00;;;17.90
67758;BMP180;54562;47.620;18.786;2022-10-12T11:54:34;99308.20;;;17.90
67758;BMP180;54562;47.620;18.786;2022-10-12T11:57:44;99308.80;;;17.92
67758;BMP180;54562;47.620;18.786;2022-10-12T12:01:22;99303.20;;;17.90
67758;BMP180;54562;47.620;18.786;2022-10-12T12:04:36;99304.40;;;17.90
67758;BMP180;54562;47.620;18.786;2022-10-12T12:07:55;99297.20;;;17.82
67758;BMP180;54562;47.620;18.786;2022-10-12T12:11:22;99296.20;;;17.80
67758;BMP180;54562;47.620;18.786;2022-10-12T12:15:20;99290.80;;;17.80
67758;BMP180;54562;47.620;18.786;2022-10-12T12:22:28;99290.80;;;17.90
67758;BMP180;54562;47.620;18.786;2022-10-12T12:25:37;99290.20;;;18.00
67758;BMP180;54562;47.620;18.786;2022-10-12T12:28:47;99288.20;;;18.10
67758;BMP180;54562;47.620;18.786;2022-10-12T12:31:58;99288.60;;;18.10
67758;BMP180;54562;47.620;18.786;2022-10-12T12:35:20;99289.20;;;18.10
67758;BMP180;54562;47.620;18.786;2022-10-12T12:38:33;99284.00;;;18.10
67758;BMP180;54562;47.620;18.786;2022-10-12T12:41:54;99285.40;;;18.10
67758;BMP180;54562;47.620;18.786;2022-10-12T12:45:39;99286.00;;;18.10
67758;BMP180;54562;47.620;18.786;2022-10-12T12:49:02;99285.40;;;18.10
67758;BMP180;54562;47.620;18.786;2022-10-12T12:52:23;99282.20;;;18.10
67758;BMP180;54562;47.620;18.786;2022-10-12T12:56:01;99282.00;;;18.10
67758;BMP180;54562;47.620;18.786;2022-10-12T12:59:55;99280.20;;;18.10
67758;BMP180;54562;47.620;18.786;2022-10-12T13:03:44;99277.00;;;18.10
67758;BMP180;54562;47.620;18.786;2022-10-12T13:07:32;99278.60;;;18.20
67758;BMP180;54562;47.620;18.786;2022-10-12T13:11:09;99275.40;;;18.30
67758;BMP180;54562;47.620;18.786;2022-10-12T13:14:47;99275.20;;;18.32
67758;BMP180;54562;47.620;18.786;2022-10-12T13:18:25;99271.20;;;18.32
67758;BMP180;54562;47.620;18.786;2022-10-12T13:21:55;99273.00;;;18.30
67758;BMP180;54562;47.620;18.786;2022-10-12T13:25:12;99275.20;;;18.30
67758;BMP180;54562;47.620;18.786;2022-10-12T13:28:25;99268.20;;;18.40
67758;BMP180;54562;47.620;18.786;2022-10-12T13:31:39;99268.40;;;18.40
67758;BMP180;54562;47.620;18.786;2022-10-12T13:34:50;99270.00;;;18.50
67758;BMP180;54562;47.620;18.786;2022-10-12T13:38:15;99272.00;;;18.56
67758;BMP180;54562;47.620;18.786;2022-10-12T13:41:25;99266.20;;;18.70
67758;BMP180;54562;47.620;18.786;2022-10-12T13:44:37;99267.60;;;18.92
67758;BMP180;54562;47.620;18.786;2022-10-12T13:47:45;99259.20;;;19.08
67758;BMP180;54562;47.620;18.786;2022-10-12T13:50:57;99258.20;;;19.10
67758;BMP180;54562;47.620;18.786;2022-10-12T13:54:19;99261.20;;;19.10
67758;BMP180;54562;47.620;18.786;2022-10-12T13:57:36;99259.00;;;19.10
67758;BMP180;54562;47.620;18.786;2022-10-12T14:00:50;99256.20;;;19.10
67758;BMP180;54562;47.620;18.786;2022-10-12T14:04:06;99254.40;;;19.10
67758;BMP180;54562;47.620;18.786;2022-10-12T14:07:21;99256.20;;;19.10
67758;BMP180;54562;47.620;18.786;2022-10-12T14:10:33;99254.00;;;19.10
67758;BMP180;54562;47.620;18.786;2022-10-12T14:13:42;99255.00;;;19.04
67758;BMP180;54562;47.620;18.786;2022-10-12T14:16:52;99255.40;;;19.00
67758;BMP180;54562;47.620;18.786;2022-10-12T14:20:25;99249.80;;;18.84
67758;BMP180;54562;47.620;18.786;2022-10-12T14:23:34;99249.60;;;18.70
67758;BMP180;54562;47.620;18.786;2022-10-12T14:26:50;99249.60;;;18.56
67758;BMP180;54562;47.620;18.786;2022-10-12T14:30:15;99253.80;;;18.40
67758;BMP180;54562;47.620;18.786;2022-10-12T14:33:26;99249.00;;;18.30
67758;BMP180;54562;47.620;18.786;2022-10-12T14:36:34;99255.00;;;18.20
67758;BMP180;54562;47.620;18.786;2022-10-12T14:39:43;99253.60;;;18.10
67758;BMP180;54562;47.620;18.786;2022-10-12T14:43:01;99251.80;;;18.00
67758;BMP180;54562;47.620;18.786;2022-10-12T14:46:10;99252.60;;;17.90
67758;BMP180;54562;47.620;18.786;2022-10-12T14:49:23;99251.60;;;17.80
67758;BMP180;54562;47.620;18.786;2022-10-12T14:52:38;99253.40;;;17.70
67758;BMP180;54562;47.620;18.786;2022-10-12T14:55:49;99249.20;;;17.68
67758;BMP180;54562;47.620;18.786;2022-10-12T14:59:00;99250.40;;;17.60
67758;BMP180;54562;47.620;18.786;2022-10-12T15:02:16;99248.40;;;17.60
67758;BMP180;54562;47.620;18.786;2022-10-12T15:05:26;99247.20;;;17.50
67758;BMP180;54562;47.620;18.786;2022-10-12T15:08:37;99246.40;;;17.44
67758;BMP180;54562;47.620;18.786;2022-10-12T15:11:45;99254.60;;;17.40
67758;BMP180;54562;47.620;18.786;2022-10-12T15:14:57;99248.20;;;17.30
67758;BMP180;54562;47.620;18.786;2022-10-12T15:18:05;99249.80;;;17.30
67758;BMP180;54562;47.620;18.786;2022-10-12T15:21:14;99245.20;;;17.20
67758;BMP180;54562;47.620;18.786;2022-10-12T15:24:27;99245.80;;;17.20
67758;BMP180;54562;47.620;18.786;2022-10-12T15:27:45;99249.20;;;17.10
67758;BMP180;54562;47.620;18.786;2022-10-12T15:31:04;99250.40;;;17.00
67758;BMP180;54562;47.620;18.786;2022-10-12T15:34:28;99247.00;;;16.90
67758;BMP180;54562;47.620;18.786;2022-10-12T15:37:45;99249.60;;;16.80
67758;BMP180;54562;47.620;18.786;2022-10-12T15:41:04;99247.40;;;16.76
67758;BMP180;54562;47.620;18.786;2022-10-12T15:44:21;99251.00;;;16.70
67758;BMP180;54562;47.620;18.786;2022-10-12T15:47:37;99249.20;;;16.60
67758;BMP180;54562;47.620;18.786;2022-10-12T15:50:54;99244.80;;;16.50
67758;BMP180;54562;47.620;18.786;2022-10-12T15:54:08;99243.40;;;16.40
67758;BMP180;54562;47.620;18.786;2022-10-12T15:57:19;99241.40;;;16.30
67758;BMP180;54562;47.620;18.786;2022-10-12T16:00:29;99249.00;;;16.20
67758;BMP180;54562;47.620;18.786;2022-10-12T16:03:38;99240.60;;;16.12
67758;BMP180;54562;47.620;18.786;2022-10-12T16:06:46;99242.80;;;16.10
67758;BMP180;54562;47.620;18.786;2022-10-12T16:09:54;99242.00;;;16.00
67758;BMP180;54562;47.620;18.786;2022-10-12T16:13:04;99240.80;;;15.90
67758;BMP180;54562;47.620;18.786;2022-10-12T16:16:12;99248.20;;;15.80
67758;BMP180;54562;47.620;18.786;2022-10-12T16:19:20;99248.80;;;15.70
67758;BMP180;54562;47.620;18.786;2022-10-12T16:22:28;99249.00;;;15.60
67758;BMP180;54562;47.620;18.786;2022-10-12T16:25:36;99253.00;;;15.60
67758;BMP180;54562;47.620;18.786;2022-10-12T16:28:45;99250.80;;;15.50
67758;BMP180;54562;47.620;18.786;2022-10-12T16:31:53;99255.40;;;15.40
67758;BMP180;54562;47.620;18.786;2022-10-12T16:35:01;99252.80;;;15.30
67758;BMP180;54562;47.620;18.786;2022-10-12T16:38:40;99252.20;;;15.28
67758;BMP180;54562;47.620;18.786;2022-10-12T16:41:48;99256.00;;;15.20
67758;BMP180;54562;47.620;18.786;2022-10-12T16:44:56;99252.00;;;15.10
67758;BMP180;54562;47.620;18.786;2022-10-12T16:48:05;99251.80;;;15.00
67758;BMP180;54562;47.620;18.786;2022-10-12T16:51:14;99261.60;;;14.90
67758;BMP180;54562;47.620;18.786;2022-10-12T16:54:22;99255.60;;;14.88
67758;BMP180;54562;47.620;18.786;2022-10-12T16:57:31;99259.20;;;14.80
67758;BMP180;54562;47.620;18.786;2022-10-12T17:00:39;99259.40;;;14.70
67758;BMP180;54562;47.620;18.786;2022-10-12T17:03:51;99257.40;;;14.60
67758;BMP180;54562;47.620;18.786;2022-10-12T17:06:59;99259.20;;;14.50
67758;BMP180;54562;47.620;18.786;2022-10-12T17:10:09;99267.20;;;14.40
67758;BMP180;54562;47.620;18.786;2022-10-12T17:13:15;99265.20;;;14.40
67758;BMP180;54562;47.620;18.786;2022-10-12T17:16:24;99263.60;;;14.30
67758;BMP180;54562;47.620;18.786;2022-10-12T17:19:50;99262.00;;;14.20
67758;BMP180;54562;47.620;18.786;2022-10-12T17:22:58;99269.20;;;14.10
67758;BMP180;54562;47.620;18.786;2022-10-12T17:26:06;99268.40;;;14.00
67758;BMP180;54562;47.620;18.786;2022-10-12T17:29:16;99264.00;;;14.00
67758;BMP180;54562;47.620;18.786;2022-10-12T17:32:24;99267.60;;;13.90
67758;BMP180;54562;47.620;18.786;2022-10-12T17:35:32;99268.00;;;13.82
67758;BMP180;54562;47.620;18.786;2022-10-12T17:38:40;99266.60;;;13.80
67758;BMP180;54562;47.620;18.786;2022-10-12T17:41:50;99264.20;;;13.80
67758;BMP180;54562;47.620;18.786;2022-10-12T17:44:58;99268.40;;;13.70
67758;BMP180;54562;47.620;18.786;2022-10-12T17:48:07;99266.00;;;13.70
67758;BMP180;54562;47.620;18.786;2022-10-12T17:51:15;99264.60;;;13.70
67758;BMP180;54562;47.620;18.786;2022-10-12T17:54:25;99263.20;;;13.60
67758;BMP180;54562;47.620;18.786;2022-10-12T17:57:32;99265.60;;;13.60
67758;BMP180;54562;47.620;18.786;2022-10-12T18:00:41;99261.00;;;13.50
67758;BMP180;54562;47.620;18.786;2022-10-12T18:03:50;99260.40;;;13.50
67758;BMP180;54562;47.620;18.786;2022-10-12T18:07:00;99259.40;;;13.50
67758;BMP180;54562;47.620;18.786;2022-10-12T18:10:11;99255.00;;;13.44
67758;BMP180;54562;47.620;18.786;2022-10-12T18:13:19;99252.20;;;13.40
67758;BMP180;54562;47.620;18.786;2022-10-12T18:16:30;99252.00;;;13.40
67758;BMP180;54562;47.620;18.786;2022-10-12T18:19:39;99250.00;;;13.40
67758;BMP180;54562;47.620;18.786;2022-10-12T18:22:47;99249.00;;;13.40